Time;durP1;ratioP1;P1;durP2;ratioP2;P2;SDS_P1;SDS_P2;PMS_P1;PMS_P2;Temp;Humidity;BMP_temperature;BMP_pressure;BME280_temperature;BME280_humidity;BME280_pressure;Samples;Min_cycle;Max_cycle;Signal;HPM_P1;HPM_P2
2023/06/03 12:10:11;;;;;;;4.25;1.87;;;;;;;30.08;19.40;101063.27;1867906;76;26772;-57
2023/06/03 12:12:56;;;;;;;2.95;1.90;;;;;;;30.06;19.33;101060.89;1824528;78;25573;-57
2023/06/03 12:15:27;;;;;;;4.53;1.60;;;;;;;29.93;19.08;101053.77;1824494;78;27438;-58
2023/06/03 12:17:54;;;;;;;5.92;1.77;;;;;;;29.81;18.94;101051.56;1824405;78;25525;-59
2023/06/03 12:20:26;;;;;;;2.50;1.20;;;;;;;29.93;19.10;101055.74;1824453;78;25588;-60
2023/06/03 12:23:05;;;;;;;3.27;1.20;;;;;;;30.02;18.90;101046.23;1824278;78;25642;-60
2023/06/03 12:25:33;;;;;;;8.20;2.05;;;;;;;30.11;18.87;101049.25;1823891;78;25721;-65
2023/06/03 12:28:26;;;;;;;7.03;2.20;;;;;;;29.92;19.12;101047.21;1824135;78;28047;-65
2023/06/03 12:30:52;;;;;;;2.25;1.27;;;;;;;29.54;19.03;101051.56;1824304;78;25564;-66
2023/06/03 12:33:19;;;;;;;2.02;1.52;;;;;;;29.40;18.73;101045.61;1823169;78;25633;-66
2023/06/03 12:35:56;;;;;;;2.65;0.95;;;;;;;29.41;18.84;101046.58;1823131;78;25676;-66
2023/06/03 12:38:23;;;;;;;1.65;0.70;;;;;;;29.56;18.67;101047.16;1823494;78;25634;-66
2023/06/03 12:40:52;;;;;;;2.60;0.90;;;;;;;29.56;18.56;101044.98;1823471;78;28072;-66
2023/06/03 12:43:21;;;;;;;2.08;0.72;;;;;;;29.49;18.47;101044.48;1823444;78;25720;-66
2023/06/03 12:45:47;;;;;;;1.67;0.82;;;;;;;29.21;18.09;101066.58;1822978;78;25724;-66
2023/06/03 12:48:31;;;;;;;1.07;0.70;;;;;;;28.68;18.33;101036.80;1824194;78;25386;-66
2023/06/03 12:50:59;;;;;;;2.25;0.80;;;;;;;28.71;18.81;101031.80;1824445;78;25582;-66
2023/06/03 12:53:25;;;;;;;2.77;0.88;;;;;;;28.85;19.14;101031.61;1824590;78;27452;-66
2023/06/03 12:55:52;;;;;;;1.77;1.00;;;;;;;29.03;18.80;101023.61;1824346;78;25521;-65
2023/06/03 12:58:19;;;;;;;4.30;0.80;;;;;;;29.13;18.69;101024.06;1824439;78;25360;-65
2023/06/03 13:00:45;;;;;;;3.47;0.88;;;;;;;29.15;18.68;101023.66;1824391;78;25576;-65
2023/06/03 13:03:11;;;;;;;2.72;0.80;;;;;;;29.29;18.94;101026.27;1824466;78;25625;-65
2023/06/03 13:05:38;;;;;;;1.07;0.57;;;;;;;29.43;18.54;101019.70;1824485;78;28088;-65
2023/06/03 13:08:05;;;;;;;1.55;0.53;;;;;;;29.48;18.52;101024.79;1824384;77;25367;-66
2023/06/03 13:10:31;;;;;;;1.15;0.80;;;;;;;29.47;18.30;101022.42;1830548;78;25430;-65
2023/06/03 13:12:57;;;;;;;3.42;0.60;;;;;;;29.51;18.37;101023.14;1830539;78;25372;-65
2023/06/03 13:15:24;;;;;;;3.30;0.60;;;;;;;29.57;18.12;101022.23;1830509;78;25573;-65
2023/06/03 13:17:50;;;;;;;1.80;0.50;;;;;;;29.61;17.98;101015.24;1830540;78;27465;-66
2023/06/03 13:20:17;;;;;;;1.90;0.50;;;;;;;29.62;18.25;101011.23;1830073;78;27290;-66
2023/06/03 13:22:43;;;;;;;2.67;0.60;;;;;;;29.64;18.26;101011.59;1829954;77;25450;-65
2023/06/03 13:25:10;;;;;;;2.98;0.70;;;;;;;29.65;18.29;101015.18;1829890;78;26161;-66
2023/06/03 13:27:41;;;;;;;3.00;0.80;;;;;;;29.52;17.73;101008.78;1829928;77;25414;-66
2023/06/03 13:30:06;;;;;;;;;;;;;;;29.24;17.79;101011.42;1832296;77;27455;-67
2023/06/03 13:32:32;;;;;;;4.58;0.85;;;;;;;29.09;17.87;101004.46;1829833;78;25458;-65
2023/06/03 13:34:59;;;;;;;1.98;0.72;;;;;;;28.83;17.65;101007.58;1829977;77;25447;-66
2023/06/03 13:37:25;;;;;;;2.27;0.65;;;;;;;28.62;17.82;100998.92;1829903;77;25372;-67
2023/06/03 13:39:51;;;;;;;1.65;0.50;;;;;;;28.49;18.15;101006.20;1829973;78;25505;-66
2023/06/03 13:42:19;;;;;;;1.02;0.80;;;;;;;28.44;18.09;100997.70;1829916;78;27550;-67
2023/06/03 13:44:46;;;;;;;4.60;0.80;;;;;;;28.45;18.51;101005.44;1830047;77;27349;-66
2023/06/03 13:47:13;;;;;;;1.85;0.80;;;;;;;28.44;18.45;101003.88;1829906;78;25638;-66
2023/06/03 13:49:39;;;;;;;1.15;0.53;;;;;;;28.34;18.59;101000.61;1829814;77;25475;-66
2023/06/03 13:52:06;;;;;;;2.27;0.60;;;;;;;28.34;18.84;101004.78;1829907;78;25603;-66
2023/06/03 13:54:32;;;;;;;1.17;0.85;;;;;;;28.33;18.59;100999.80;1829882;77;27508;-66
2023/06/03 13:57:01;;;;;;;3.40;1.65;;;;;;;28.26;18.60;100999.28;1829793;78;25601;-65
2023/06/03 13:59:28;;;;;;;1.15;0.47;;;;;;;28.21;18.71;100999.73;1830046;78;25379;-66
2023/06/03 14:01:54;;;;;;;2.50;0.60;;;;;;;28.15;18.78;100994.45;1829827;78;25587;-65
2023/06/03 14:04:22;;;;;;;2.25;0.60;;;;;;;28.07;18.75;100990.94;1829919;78;25382;-66
2023/06/03 14:06:48;;;;;;;2.40;0.60;;;;;;;27.98;18.51;100991.26;1829889;77;28228;-65
2023/06/03 14:09:14;;;;;;;1.27;0.90;;;;;;;27.81;18.61;100982.63;1829662;77;25476;-66
2023/06/03 14:11:42;;;;;;;1.02;0.60;;;;;;;27.71;18.72;100989.08;1829967;78;25541;-65
2023/06/03 14:14:08;;;;;;;2.10;0.65;;;;;;;27.63;18.79;100980.00;1794961;78;25746;-65
2023/06/03 14:16:34;;;;;;;2.60;1.10;;;;;;;27.56;18.79;100982.23;1829925;78;25625;-65
2023/06/03 14:19:01;;;;;;;1.52;1.00;;;;;;;27.36;19.01;100982.02;1829952;78;27469;-65
2023/06/03 14:21:27;;;;;;;2.27;0.90;;;;;;;27.19;18.80;100973.97;1829821;78;25762;-65
2023/06/03 14:23:53;;;;;;;0.95;0.75;;;;;;;26.95;18.63;100980.45;1829856;77;25556;-65
2023/06/03 14:26:21;;;;;;;1.75;0.60;;;;;;;26.70;19.07;100973.64;1829871;77;25346;-65
2023/06/03 14:28:48;;;;;;;2.77;0.80;;;;;;;26.58;19.27;100975.66;1830051;77;25538;-64
2023/06/03 14:31:17;;;;;;;1.45;0.60;;;;;;;26.45;19.37;100977.29;1829812;78;27474;-57
2023/06/03 14:33:44;;;;;;;2.15;0.50;;;;;;;26.33;19.94;100982.67;1829719;78;27312;-58
2023/06/03 14:36:10;;;;;;;2.10;0.60;;;;;;;26.28;19.77;100972.78;1829859;77;25391;-58
2023/06/03 14:38:38;;;;;;;2.98;0.62;;;;;;;26.28;20.03;100976.94;1829803;77;27389;-65
2023/06/03 14:41:08;;;;;;;2.67;0.70;;;;;;;26.18;19.69;100972.81;1829889;78;25453;-63
2023/06/03 14:43:36;;;;;;;4.12;2.55;;;;;;;25.96;19.46;100972.84;1829877;77;27433;-64
2023/06/03 14:46:03;;;;;;;3.22;1.25;;;;;;;25.75;19.65;100967.32;1829770;77;25892;-64
2023/06/03 14:48:30;;;;;;;1.85;0.60;;;;;;;25.50;19.81;100969.48;1829834;78;25387;-64
2023/06/03 14:50:57;;;;;;;0.88;0.50;;;;;;;24.95;19.63;100967.20;1829805;78;25387;-63
2023/06/03 14:53:23;;;;;;;0.47;0.42;;;;;;;24.63;20.33;100963.55;1829871;77;25448;-56
2023/06/03 14:55:49;;;;;;;2.75;0.90;;;;;;;24.39;20.68;100961.03;1829864;78;27523;-57
2023/06/03 14:58:17;;;;;;;2.40;0.93;;;;;;;24.21;20.88;100958.20;1829793;78;25600;-56
2023/06/03 15:00:44;;;;;;;1.50;0.60;;;;;;;24.02;20.98;100957.08;1829841;77;25622;-56
2023/06/03 15:03:11;;;;;;;5.42;1.02;;;;;;;23.88;21.22;100957.00;1829806;78;25391;-58
2023/06/03 15:05:37;;;;;;;0.60;0.40;;;;;;;23.77;21.56;100956.30;1829884;78;25396;-58
2023/06/03 15:08:04;;;;;;;2.85;0.80;;;;;;;23.67;21.49;100956.42;1829868;77;27423;-60
2023/06/03 15:10:31;;;;;;;5.03;0.78;;;;;;;23.58;21.69;100962.05;1829650;77;26082;-63
2023/06/03 15:12:57;;;;;;;1.98;0.80;;;;;;;23.44;22.06;100957.20;1829806;77;25710;-57
2023/06/03 15:15:25;;;;;;;1.82;0.80;;;;;;;23.30;21.60;100955.11;1829770;77;25439;-58
2023/06/03 15:17:52;;;;;;;3.27;0.80;;;;;;;23.17;21.90;100952.42;1829904;77;25391;-59
2023/06/03 15:20:18;;;;;;;3.10;0.72;;;;;;;23.08;21.86;100950.76;1829797;78;29587;-57
2023/06/03 15:22:45;;;;;;;2.20;0.75;;;;;;;23.00;21.80;100957.93;1829728;78;25360;-58
2023/06/03 15:25:11;;;;;;;1.62;0.80;;;;;;;22.87;22.35;100946.38;1829826;77;25402;-60
2023/06/03 15:27:37;;;;;;;0.50;0.50;;;;;;;22.79;22.23;100955.73;1829775;78;25431;-50
2023/06/03 15:30:06;;;;;;;1.70;0.80;;;;;;;22.69;22.35;100950.30;1829817;78;25545;-55
2023/06/03 15:32:36;;;;;;;2.17;0.60;;;;;;;22.59;22.62;100950.38;1829964;77;27534;-57
2023/06/03 15:35:03;;;;;;;2.33;0.80;;;;;;;22.47;23.49;100953.38;1829596;77;25570;-53
2023/06/03 15:37:30;;;;;;;1.67;0.60;;;;;;;22.27;22.71;100950.75;1829807;78;25589;-54
2023/06/03 15:39:56;;;;;;;0.82;0.78;;;;;;;22.03;22.70;100947.04;1829774;78;25799;-56
2023/06/03 15:42:22;;;;;;;1.07;0.72;;;;;;;21.74;23.67;100950.73;1829860;78;25572;-59
2023/06/03 15:44:49;;;;;;;4.45;0.62;;;;;;;21.44;23.38;100954.95;1829695;78;27516;-58
2023/06/03 15:47:15;;;;;;;1.50;0.72;;;;;;;21.14;24.97;100949.30;1828177;77;25645;-58
2023/06/03 15:49:41;;;;;;;2.83;1.17;;;;;;;20.89;24.78;100948.83;1828247;77;25676;-58
2023/06/03 15:52:07;;;;;;;2.70;1.00;;;;;;;20.70;24.32;100940.84;1829250;78;25725;-58
2023/06/03 15:54:34;;;;;;;4.35;0.93;;;;;;;20.51;25.14;100951.20;1829379;77;25684;-56
2023/06/03 15:57:00;;;;;;;2.08;0.60;;;;;;;20.25;24.95;100944.96;1829330;78;27097;-58
2023/06/03 15:59:26;;;;;;;2.17;0.85;;;;;;;20.03;24.60;100945.06;1829158;77;25597;-56
2023/06/03 16:01:52;;;;;;;3.12;0.72;;;;;;;19.81;24.78;100936.91;1829785;78;25522;-58
2023/06/03 16:04:19;;;;;;;1.50;0.93;;;;;;;19.57;25.71;100937.87;1829719;77;25529;-58
2023/06/03 16:06:45;;;;;;;2.75;1.42;;;;;;;19.41;26.33;100937.30;1829861;78;25550;-58
2023/06/03 16:09:11;;;;;;;1.50;0.80;;;;;;;19.31;26.94;100935.66;1829365;77;27515;-58
2023/06/03 16:11:38;;;;;;;4.42;1.50;;;;;;;19.18;27.74;100929.44;1823610;78;25361;-58
2023/06/03 16:14:04;;;;;;;1.98;0.90;;;;;;;19.04;27.41;100929.28;1823719;78;25383;-58
2023/06/03 16:16:31;;;;;;;1.20;0.80;;;;;;;18.95;27.14;100921.80;1823644;78;25551;-58
2023/06/03 16:18:58;;;;;;;1.50;0.72;;;;;;;18.85;27.38;100925.84;1823712;78;25442;-57
2023/06/03 16:21:25;;;;;;;3.72;0.68;;;;;;;18.76;27.37;100929.30;1823640;78;27557;-57
2023/06/03 16:23:51;;;;;;;6.53;1.20;;;;;;;18.70;27.83;100923.04;1823661;78;25400;-57
2023/06/03 16:26:17;;;;;;;2.87;1.12;;;;;;;18.62;28.22;100922.03;1823628;78;25517;-57
2023/06/03 16:28:44;;;;;;;2.92;1.10;;;;;;;18.50;28.87;100916.02;1823586;78;25499;-58
2023/06/03 16:31:10;;;;;;;2.98;0.85;;;;;;;18.38;28.72;100925.06;1823664;78;25564;-57
2023/06/03 16:33:36;;;;;;;2.65;1.02;;;;;;;18.25;28.87;100924.87;1823681;77;27538;-57
2023/06/03 16:36:03;;;;;;;4.47;1.35;;;;;;;18.14;28.66;100913.60;1823525;78;25572;-54
2023/06/03 16:38:31;;;;;;;3.22;2.33;;;;;;;18.06;28.52;100920.78;1823730;78;25558;-57
2023/06/03 16:40:57;;;;;;;2.35;1.30;;;;;;;17.98;29.00;100913.53;1823644;78;25517;-57
2023/06/03 16:43:23;;;;;;;3.52;0.90;;;;;;;17.90;28.53;100915.81;1823678;78;25428;-57
2023/06/03 16:45:50;;;;;;;3.90;0.82;;;;;;;17.82;28.30;100914.74;1823627;78;27513;-57
2023/06/03 16:48:16;;;;;;;1.37;0.70;;;;;;;17.74;28.88;100913.73;1823598;78;25770;-57
2023/06/03 16:50:42;;;;;;;4.12;0.95;;;;;;;17.67;29.14;100915.44;1823651;78;25514;-56
2023/06/03 16:53:08;;;;;;;4.45;1.95;;;;;;;17.60;29.02;100913.84;1823594;78;25590;-56
2023/06/03 16:55:35;;;;;;;5.08;1.45;;;;;;;17.53;29.13;100915.20;1823738;78;25356;-57
2023/06/03 16:58:01;;;;;;;1.67;1.00;;;;;;;17.48;29.39;100916.00;1823797;78;27477;-56
2023/06/03 17:00:28;;;;;;;4.65;1.12;;;;;;;17.44;29.68;100910.41;1823751;78;25587;-56
2023/06/03 17:02:55;;;;;;;2.35;0.98;;;;;;;17.38;29.35;100916.44;1823828;78;25582;-56
2023/06/03 17:05:21;;;;;;;2.00;1.00;;;;;;;17.33;29.93;100913.35;1823820;78;25565;-57
2023/06/03 17:07:47;;;;;;;2.92;0.90;;;;;;;17.24;29.91;100915.40;1784592;78;25624;-57
2023/06/03 17:10:15;;;;;;;1.37;0.90;;;;;;;17.16;29.67;100917.89;1823721;77;28393;-57
2023/06/03 17:12:42;;;;;;;1.72;1.00;;;;;;;17.09;29.97;100914.89;1823735;78;25403;-56
2023/06/03 17:15:10;;;;;;;3.22;0.95;;;;;;;17.03;29.91;100910.02;1823803;78;25396;-56
2023/06/03 17:17:36;;;;;;;2.70;1.00;;;;;;;16.97;30.68;100913.50;1823831;78;25525;-57
2023/06/03 17:20:03;;;;;;;3.40;1.30;;;;;;;16.89;30.53;100916.57;1823886;78;25544;-56
2023/06/03 17:22:29;;;;;;;5.35;1.30;;;;;;;16.81;30.24;100908.64;1823830;78;27598;-55
2023/06/03 17:24:56;;;;;;;6.62;1.50;;;;;;;16.78;30.74;100912.62;1823755;78;25367;-56
2023/06/03 17:27:22;;;;;;;8.05;1.90;;;;;;;16.74;30.74;100904.87;1823843;78;25534;-55
2023/06/03 17:29:48;;;;;;;9.40;1.57;;;;;;;16.71;30.80;100905.54;1823758;78;25513;-56
2023/06/03 17:32:14;;;;;;;4.80;1.80;;;;;;;16.67;30.59;100905.41;1823837;78;25430;-53
2023/06/03 17:34:40;;;;;;;5.25;1.75;;;;;;;16.62;31.01;100899.59;1823815;78;28109;-52
2023/06/03 17:37:07;;;;;;;11.68;4.55;;;;;;;16.58;31.33;100901.40;1823671;78;25541;-55
2023/06/03 17:39:33;;;;;;;12.40;5.72;;;;;;;16.53;31.44;100900.23;1823807;78;25628;-54
2023/06/03 17:41:59;;;;;;;8.43;2.55;;;;;;;16.46;31.65;100904.05;1823757;78;25723;-53
2023/06/03 17:44:25;;;;;;;5.50;1.20;;;;;;;16.40;31.24;100905.41;1823806;78;25614;-51
2023/06/03 17:46:52;;;;;;;4.20;1.47;;;;;;;16.35;31.44;100909.70;1823807;78;27487;-55
2023/06/03 17:49:18;;;;;;;5.47;3.10;;;;;;;16.27;31.87;100904.52;1823700;78;25794;-52
2023/06/03 17:51:44;;;;;;;6.35;1.42;;;;;;;16.21;31.93;100905.88;1823749;78;25581;-53
2023/06/03 17:54:10;;;;;;;4.70;1.50;;;;;;;16.15;32.05;100905.82;1823719;78;25515;-53
2023/06/03 17:56:37;;;;;;;2.35;1.42;;;;;;;16.08;32.11;100912.38;1784507;78;25529;-53
2023/06/03 17:59:03;;;;;;;3.52;1.75;;;;;;;16.01;32.31;100904.71;1823791;78;27477;-54
2023/06/03 18:01:29;;;;;;;5.05;1.50;;;;;;;15.92;32.68;100895.22;1823723;78;25621;-53
2023/06/03 18:03:55;;;;;;;5.20;1.62;;;;;;;15.83;32.82;100904.00;1823787;78;25436;-52
2023/06/03 18:06:22;;;;;;;3.27;1.40;;;;;;;15.75;33.20;100907.03;1823751;78;25789;-55
2023/06/03 18:08:52;;;;;;;4.15;1.45;;;;;;;15.65;32.94;100906.80;1823798;78;25538;-55
2023/06/03 18:11:18;;;;;;;;;;;;;;;15.60;33.33;100904.83;1826339;78;27451;-54
2023/06/03 18:13:44;;;;;;;5.15;1.35;;;;;;;15.52;33.88;100905.66;1823725;77;25747;-55
2023/06/03 18:16:10;;;;;;;8.13;2.15;;;;;;;15.42;33.72;100905.45;1823778;78;25583;-54
2023/06/03 18:18:39;;;;;;;6.58;1.45;;;;;;;15.30;34.17;100906.92;1823749;78;25586;-57
2023/06/03 18:21:05;;;;;;;6.58;3.30;;;;;;;15.22;34.38;100913.23;1823775;78;25392;-53
2023/06/03 18:23:32;;;;;;;5.55;2.90;;;;;;;15.12;34.36;100917.66;1823769;78;28597;-53
2023/06/03 18:25:58;;;;;;;7.72;2.25;;;;;;;15.04;34.67;100921.20;1823652;78;25606;-55
2023/06/03 18:28:24;;;;;;;2.83;1.70;;;;;;;14.96;34.80;100926.89;1823759;78;25622;-55
2023/06/03 18:30:51;;;;;;;6.15;1.80;;;;;;;14.87;35.57;100926.11;1823705;77;25495;-53
2023/06/03 18:33:17;;;;;;;2.65;1.75;;;;;;;14.76;35.59;100920.17;1823782;78;25546;-54
2023/06/03 18:35:44;;;;;;;3.90;1.77;;;;;;;14.65;35.66;100928.45;1823745;78;28517;-53
2023/06/03 18:38:11;;;;;;;6.25;1.98;;;;;;;14.53;36.00;100925.77;1823649;78;26341;-53
2023/06/03 18:40:37;;;;;;;7.50;4.17;;;;;;;14.42;36.21;100925.86;1823753;78;25490;-54
2023/06/03 18:43:04;;;;;;;12.18;7.40;;;;;;;14.31;36.33;100930.80;1823657;78;25592;-51
2023/06/03 18:45:30;;;;;;;4.78;3.22;;;;;;;14.19;36.67;100934.14;1823771;78;25630;-52
2023/06/03 18:47:56;;;;;;;4.20;2.52;;;;;;;14.05;37.04;100926.69;1823722;78;28462;-52
2023/06/03 18:50:23;;;;;;;6.17;2.70;;;;;;;13.94;37.41;100928.87;1823658;78;25633;-52
2023/06/03 18:52:49;;;;;;;5.75;3.33;;;;;;;13.82;37.55;100925.44;1823736;78;25395;-54
2023/06/03 18:55:16;;;;;;;14.55;5.60;;;;;;;13.70;37.80;100923.85;1823694;77;25488;-54
2023/06/03 18:57:42;;;;;;;20.62;6.83;;;;;;;13.59;38.05;100933.42;1823788;78;25585;-54
2023/06/03 19:00:11;;;;;;;26.02;9.30;;;;;;;13.48;38.43;100929.36;1823773;78;27803;-52
2023/06/03 19:02:37;;;;;;;22.55;8.28;;;;;;;13.35;38.78;100921.53;1823783;78;25548;-56
2023/06/03 19:05:05;;;;;;;19.48;5.10;;;;;;;13.25;39.06;100923.95;1823741;78;25455;-56
2023/06/03 19:07:32;;;;;;;14.35;3.67;;;;;;;13.13;39.42;100918.27;1823692;78;25456;-52
2023/06/03 19:09:58;;;;;;;15.53;3.95;;;;;;;13.01;39.63;100922.38;1823750;78;25454;-55
2023/06/03 19:12:25;;;;;;;12.95;3.25;;;;;;;12.92;39.63;100927.49;1823682;78;27864;-49
2023/06/03 19:14:52;;;;;;;56.15;51.77;;;;;;;12.83;39.71;100931.51;1823614;78;25648;-52
2023/06/03 19:17:19;;;;;;;91.70;83.97;;;;;;;12.71;40.04;100931.49;1823683;78;25437;-51
2023/06/03 19:19:46;;;;;;;112.17;100.82;;;;;;;12.62;40.47;100925.77;1823689;78;25528;-50
2023/06/03 19:22:13;;;;;;;12.30;8.20;;;;;;;12.48;41.02;100908.16;1823768;78;25550;-51
2023/06/03 19:24:40;;;;;;;6.60;2.58;;;;;;;12.47;40.15;100933.14;1823720;78;27483;-50
2023/06/03 19:27:08;;;;;;;5.65;2.72;;;;;;;12.42;40.25;100936.53;1823629;78;25620;-48
2023/06/03 19:29:35;;;;;;;3.98;2.77;;;;;;;12.34;40.52;100940.75;1823946;77;25645;-49
2023/06/03 19:32:02;;;;;;;75.22;70.52;;;;;;;12.25;40.34;100939.31;1823667;78;25980;-50
2023/06/03 19:34:29;;;;;;;76.47;71.47;;;;;;;;;;1823704;78;25436;-48
2023/06/03 19:36:57;;;;;;;78.45;73.37;;;;;;;;;;1823718;78;27755;-49
2023/06/03 19:39:25;;;;;;;79.70;74.40;;;;;;;;;;1823750;78;25346;-51
2023/06/03 19:41:52;;;;;;;79.20;73.95;;;;;;;;;;1823719;78;25288;-48
2023/06/03 19:44:20;;;;;;;73.47;68.63;;;;;;;;;;1823913;78;26299;-49
2023/06/03 19:46:48;;;;;;;80.42;75.12;;;;;;;;;;1823744;78;25335;-49
2023/06/03 19:49:16;;;;;;;77.20;72.37;;;;;;;;;;1823770;78;27361;-48
2023/06/03 19:51:43;;;;;;;54.27;50.87;;;;;;;;;;1823879;78;25481;-46
2023/06/03 19:54:12;;;;;;;77.47;72.25;;;;;;;;;;1823711;78;25337;-46
2023/06/03 19:56:39;;;;;;;76.40;71.30;;;;;;;;;;1823833;78;25550;-52
2023/06/03 19:59:06;;;;;;;87.92;80.72;;;;;;;;;;1823725;78;25291;-49
2023/06/03 20:01:34;;;;;;;84.52;78.55;;;;;;;;;;1823675;78;27567;-51
2023/06/03 20:04:02;;;;;;;114.37;101.92;;;;;;;;;;1823644;78;25480;-47
2023/06/03 20:06:33;;;;;;;64.62;59.75;;;;;;;;;;1823747;78;25414;-48
2023/06/03 20:08:58;;;;;;;;;;;;;;;;;;1826420;78;25925;-45
2023/06/03 20:11:25;;;;;;;80.70;74.95;;;;;;;;;;1825850;78;25442;-44
2023/06/03 20:13:53;;;;;;;93.45;85.07;;;;;;;;;;1829818;77;27712;-47
2023/06/03 20:16:20;;;;;;;82.47;75.12;;;;;;;;;;1829765;78;25451;-48
2023/06/03 20:18:50;;;;;;;60.50;55.87;;;;;;;;;;1829757;77;25450;-47
2023/06/03 20:21:17;;;;;;;83.17;77.22;;;;;;;;;;1829854;78;26231;-49
2023/06/03 20:23:45;;;;;;;12.53;11.83;;;;;;;;;;1829775;78;25498;-47
2023/06/03 20:26:12;;;;;;;78.97;73.72;;;;;;;;;;1829942;77;27692;-50
2023/06/03 20:28:39;;;;;;;6.25;5.95;;;;;;;;;;1829720;77;25529;-53
2023/06/03 20:31:07;;;;;;;54.10;50.33;;;;;;;;;;1829849;77;25436;-49
2023/06/03 20:33:35;;;;;;;10.08;9.38;;;;;;;;;;1829910;78;25549;-48
2023/06/03 20:36:02;;;;;;;69.92;65.08;;;;;;;;;;1829997;78;25411;-48
2023/06/03 20:38:31;;;;;;;8.57;8.17;;;;;;;;;;1829953;78;27796;-50
2023/06/03 20:40:58;;;;;;;82.27;76.53;;;;;;;;;;1829800;77;27196;-49
2023/06/03 20:43:25;;;;;;;78.70;73.12;;;;;;;;;;1829925;78;25528;-49
2023/06/03 20:45:57;;;;;;;80.75;74.97;;;;;;;;;;1829918;77;25714;-48
2023/06/03 20:48:25;;;;;;;78.78;73.28;;;;;;;;;;1829991;77;25434;-49
2023/06/03 20:50:52;;;;;;;78.25;72.80;;;;;;;;;;1829957;77;27530;-48
2023/06/03 20:53:19;;;;;;;81.90;76.15;;;;;;;;;;1829795;78;25502;-48
2023/06/03 20:55:47;;;;;;;81.15;75.40;;;;;;;;;;1829895;78;25300;-48
2023/06/03 20:58:14;;;;;;;86.60;80.20;;;;;;;;;;1829867;78;25495;-48
2023/06/03 21:00:42;;;;;;;80.15;74.27;;;;;;;;;;1829837;77;25416;-48
2023/06/03 21:03:09;;;;;;;85.70;79.43;;;;;;;;;;1829862;77;27413;-48
2023/06/03 21:05:36;;;;;;;80.90;75.05;;;;;;;;;;1829929;78;26030;-48
2023/06/03 21:08:04;;;;;;;82.57;76.45;;;;;;;;;;1829954;77;25434;-47
2023/06/03 21:10:31;;;;;;;79.30;73.67;;;;;;;;;;1829869;77;27712;-50
2023/06/03 21:12:58;;;;;;;61.73;56.77;;;;;;;;;;1829950;77;25503;-50
2023/06/03 21:15:25;;;;;;;25.12;11.08;;;;;;;;;;1829890;78;27436;-53
2023/06/03 21:17:52;;;;;;;22.07;19.55;;;;;;;;;;1829795;78;27225;-54
2023/06/03 21:20:20;;;;;;;80.67;74.75;;;;;;;;;;1829843;77;25258;-46
2023/06/03 21:22:47;;;;;;;67.75;63.10;;;;;;;;;;1828924;77;25538;-48
2023/06/03 21:25:14;;;;;;;66.42;61.30;;;;;;;;;;1829735;77;25355;-47
2023/06/03 21:27:42;;;;;;;83.75;77.50;;;;;;;;;;1829851;78;29566;-46
2023/06/03 21:30:11;;;;;;;79.80;73.72;;;;;;;;;;1829864;78;27198;-46
2023/06/03 21:32:38;;;;;;;81.90;76.28;;;;;;;;;;1830006;78;25414;-47
2023/06/03 21:35:07;;;;;;;78.70;73.30;;;;;;;;;;1829827;78;27762;-48
2023/06/03 21:37:34;;;;;;;86.12;80.32;;;;;;;;;;1830048;78;25296;-48
2023/06/03 21:40:02;;;;;;;83.15;77.35;;;;;;;;;;1829849;78;27588;-46
2023/06/03 21:42:29;;;;;;;87.78;81.30;;;;;;;;;;1829768;78;26236;-46
2023/06/03 21:44:56;;;;;;;84.97;78.57;;;;;;;;;;1829858;77;25324;-51
2023/06/03 21:47:23;;;;;;;89.50;82.92;;;;;;;;;;1829809;78;25479;-52
2023/06/03 21:49:50;;;;;;;78.90;73.30;;;;;;;;;;1829884;77;25506;-54
2023/06/03 21:52:17;;;;;;;81.00;74.82;;;;;;;;;;1828557;77;27396;-57
2023/06/03 21:54:44;;;;;;;80.50;74.53;;;;;;;;;;1829755;78;25957;-57
2023/06/03 21:57:12;;;;;;;15.65;7.67;;;;;;;;;;1829862;78;25496;-55
2023/06/03 21:59:40;;;;;;;94.85;86.97;;;;;;;;;;1829833;78;25509;-55
2023/06/03 22:02:08;;;;;;;101.18;91.90;;;;;;;;;;1803788;77;25477;-56
2023/06/03 22:04:37;;;;;;;94.15;86.57;;;;;;;;;;1762175;81;27420;-56
2023/06/03 22:07:05;;;;;;;69.87;64.12;;;;;;;;;;1745494;82;25461;-50
2023/06/03 22:09:32;;;;;;;16.50;6.40;;;;;;;;;;1745638;82;25504;-54
2023/06/03 22:11:59;;;;;;;84.25;77.95;;;;;;;;;;1745403;82;25597;-56
2023/06/03 22:14:29;;;;;;;73.92;68.55;;;;;;;;;;1745371;82;25525;-53
2023/06/03 22:16:56;;;;;;;87.47;80.75;;;;;;;;;;1745300;82;27391;-56
2023/06/03 22:19:23;;;;;;;85.45;79.15;;;;;;;;;;1745248;82;25464;-55
2023/06/03 22:21:52;;;;;;;84.17;77.62;;;;;;;;;;1745260;82;25423;-55
2023/06/03 22:24:19;;;;;;;81.65;75.67;;;;;;;;;;1745286;82;25524;-57
2023/06/03 22:26:46;;;;;;;83.17;76.92;;;;;;;;;;1745320;82;25379;-54
2023/06/03 22:29:13;;;;;;;104.85;94.77;;;;;;;;;;1745280;82;27436;-51
2023/06/03 22:31:40;;;;;;;142.87;114.45;;;;;;;;;;1745203;82;25967;-51
2023/06/03 22:34:07;;;;;;;95.75;86.40;;;;;;;;;;1745289;82;25522;-55
2023/06/03 22:36:34;;;;;;;89.87;82.90;;;;;;;;;;1745247;82;25602;-55
2023/06/03 22:39:02;;;;;;;84.30;77.95;;;;;;;;;;1745295;82;25447;-57
2023/06/03 22:41:30;;;;;;;84.28;77.82;;;;;;;;;;1745277;82;27311;-55
2023/06/03 22:43:57;;;;;;;86.25;79.60;;;;;;;;;;1745243;82;25465;-57
2023/06/03 22:46:24;;;;;;;86.25;79.92;;;;;;;;;;1745316;82;25496;-56
2023/06/03 22:48:52;;;;;;;84.03;76.73;;;;;;;;;;1745264;82;25573;-57
2023/06/03 22:51:19;;;;;;;83.67;77.22;;;;;;;;;;1745297;82;25537;-54
2023/06/03 22:53:46;;;;;;;87.57;80.85;;;;;;;;;;1745237;82;27376;-55
2023/06/03 22:56:13;;;;;;;84.83;78.20;;;;;;;;;;1745222;82;25659;-53
2023/06/03 22:58:40;;;;;;;86.05;79.22;;;;;;;;;;1745300;82;25355;-55
2023/06/03 23:01:07;;;;;;;88.78;80.97;;;;;;;;;;1745216;82;27685;-56
2023/06/03 23:03:34;;;;;;;88.25;80.60;;;;;;;;;;1745297;82;25303;-56
2023/06/03 23:06:01;;;;;;;86.87;80.28;;;;;;;;;;1745270;82;27324;-57
2023/06/03 23:08:28;;;;;;;86.87;79.62;;;;;;;;;;1745119;82;25441;-53
2023/06/03 23:10:55;;;;;;;87.62;80.80;;;;;;;;;;1743885;82;25567;-54
2023/06/03 23:13:22;;;;;;;88.62;81.08;;;;;;;;;;1744125;82;25717;-53
2023/06/03 23:15:49;;;;;;;86.10;79.20;;;;;;;;;;1745311;82;25297;-56
2023/06/03 23:18:15;;;;;;;57.75;52.17;;;;;;;;;;1745322;82;27468;-55
2023/06/03 23:20:42;;;;;;;89.58;82.72;;;;;;;;;;1745173;82;25957;-56
2023/06/03 23:23:10;;;;;;;85.67;79.05;;;;;;;;;;1745258;82;25340;-55
2023/06/03 23:25:37;;;;;;;86.67;80.00;;;;;;;;;;1745233;82;25481;-56
2023/06/03 23:28:04;;;;;;;87.47;80.30;;;;;;;;;;1745313;82;25367;-56
2023/06/03 23:30:32;;;;;;;89.37;82.47;;;;;;;;;;1745306;82;27463;-56
2023/06/03 23:33:01;;;;;;;62.20;57.40;;;;;;;;;;1745743;82;27144;-57
2023/06/03 23:35:29;;;;;;;90.12;82.20;;;;;;;;;;1745393;82;25510;-55
2023/06/03 23:37:56;;;;;;;88.07;81.30;;;;;;;;;;1745255;82;25689;-54
2023/06/03 23:40:27;;;;;;;88.62;81.42;;;;;;;;;;1745324;82;25450;-55
2023/06/03 23:42:53;;;;;;;;;;;;;;;;;;1747794;82;27464;-56
2023/06/03 23:45:21;;;;;;;87.55;80.57;;;;;;;;;;1745158;82;25388;-57
2023/06/03 23:47:49;;;;;;;18.67;11.08;;;;;;;;;;1745373;82;25480;-57
2023/06/03 23:50:16;;;;;;;27.35;11.03;;;;;;;;;;1745216;82;27624;-56
2023/06/03 23:52:43;;;;;;;45.05;40.50;;;;;;;;;;1745251;82;25427;-57
2023/06/03 23:55:10;;;;;;;91.40;84.22;;;;;;;;;;1745297;82;27391;-57
2023/06/03 23:57:37;;;;;;;89.80;82.55;;;;;;;;;;1745129;82;25463;-57
